Time;durP1;ratioP1;P1;durP2;ratioP2;P2;SDS_P1;SDS_P2;PMS_P1;PMS_P2;Temp;Humidity;BMP_temperature;BMP_pressure;BME280_temperature;BME280_humidity;BME280_pressure;Samples;Min_cycle;Max_cycle;Signal;HPM_P1;HPM_P2
2023/07/24 00:01:07;;;;;;;16.20;9.55;;;23.80;75.70;;;;;;5016638;28;20066;-63
2023/07/24 00:03:33;;;;;;;13.80;8.50;;;23.80;75.70;;;;;;5016710;28;20113;-61
2023/07/24 00:05:59;;;;;;;15.05;9.93;;;23.70;75.60;;;;;;5015698;28;20112;-65
2023/07/24 00:08:26;;;;;;;13.65;8.80;;;23.70;75.60;;;;;;5015917;28;20014;-61
2023/07/24 00:10:51;;;;;;;12.63;8.80;;;23.70;75.50;;;;;;5016120;28;20097;-64
2023/07/24 00:13:17;;;;;;;11.93;8.55;;;23.70;75.50;;;;;;5016089;28;20467;-62
2023/07/24 00:15:43;;;;;;;11.85;8.27;;;23.80;75.60;;;;;;5016284;28;20107;-59
2023/07/24 00:18:09;;;;;;;11.60;8.30;;;23.70;75.50;;;;;;5015984;28;20467;-60
2023/07/24 00:20:35;;;;;;;13.13;8.93;;;23.70;75.50;;;;;;5015898;28;20022;-60
2023/07/24 00:23:01;;;;;;;12.45;8.57;;;23.70;75.50;;;;;;5015651;28;20014;-60
2023/07/24 00:25:27;;;;;;;12.73;8.13;;;23.70;75.50;;;;;;5015624;28;20119;-64
2023/07/24 00:27:54;;;;;;;13.13;8.20;;;23.70;75.60;;;;;;5016133;28;20026;-63
2023/07/24 00:30:20;;;;;;;13.38;8.55;;;23.70;75.60;;;;;;5016045;28;20030;-64
2023/07/24 00:32:46;;;;;;;11.10;8.35;;;23.70;75.60;;;;;;5015560;28;20026;-61
2023/07/24 00:35:11;;;;;;;12.30;7.97;;;23.70;75.60;;;;;;5015461;28;20030;-62
2023/07/24 00:37:37;;;;;;;11.88;7.80;;;23.60;75.60;;;;;;5016033;28;20053;-62
2023/07/24 00:40:04;;;;;;;12.02;8.35;;;23.70;75.50;;;;;;5015412;28;20072;-65
2023/07/24 00:42:30;;;;;;;13.52;8.63;;;23.70;75.60;;;;;;5015423;28;20022;-65
2023/07/24 00:44:56;;;;;;;12.77;8.60;;;23.60;75.50;;;;;;5015358;28;20030;-61
2023/07/24 00:47:24;;;;;;;13.77;9.27;;;23.60;75.40;;;;;;5015629;28;20033;-59
2023/07/24 00:49:54;;;;;;;14.02;9.15;;;23.60;75.40;;;;;;5015671;28;20033;-60
2023/07/24 00:52:20;;;;;;;12.20;8.23;;;23.60;75.40;;;;;;5014376;28;20033;-62
2023/07/24 00:54:47;;;;;;;13.38;8.70;;;23.60;75.40;;;;;;5015350;28;20026;-62
2023/07/24 00:57:13;;;;;;;15.13;9.05;;;23.50;75.40;;;;;;5015364;28;20507;-64
2023/07/24 00:59:41;;;;;;;15.35;9.20;;;23.50;75.40;;;;;;5015288;28;20097;-65
2023/07/24 01:02:08;;;;;;;15.75;9.32;;;23.50;75.40;;;;;;5015983;28;20026;-63
2023/07/24 01:04:34;;;;;;;12.48;8.23;;;23.50;75.40;;;;;;5014356;28;20096;-62
2023/07/24 01:07:00;;;;;;;13.25;8.50;;;23.50;75.40;;;;;;5014867;28;20054;-65
2023/07/24 01:09:26;;;;;;;13.98;8.65;;;23.50;75.50;;;;;;5015125;28;20547;-62
2023/07/24 01:12:02;;;;;;;13.05;8.30;;;23.50;75.50;;;;;;5015503;28;20052;-63
2023/07/24 01:14:47;;;;;;;13.35;8.50;;;23.50;75.60;;;;;;5019381;28;20033;-64
2023/07/24 01:17:19;;;;;;;12.68;8.80;;;23.50;75.60;;;;;;5019316;28;20092;-60
2023/07/24 01:19:58;;;;;;;13.27;8.88;;;23.50;75.40;;;;;;5019211;28;20022;-60
2023/07/24 01:22:35;;;;;;;14.07;8.57;;;23.50;75.30;;;;;;5018945;28;20076;-63
2023/07/24 01:25:31;;;;;;;12.65;8.68;;;23.40;75.10;;;;;;5019092;28;20137;-64
2023/07/24 01:27:57;;;;;;;14.85;9.05;;;23.50;75.00;;;;;;5015916;28;20030;-61
2023/07/24 01:30:23;;;;;;;14.63;8.45;;;23.50;74.80;;;;;;5018806;28;20033;-61
2023/07/24 01:32:49;;;;;;;13.90;8.88;;;23.40;74.60;;;;;;5018990;28;20466;-64
2023/07/24 01:35:16;;;;;;;12.52;8.05;;;23.40;74.40;;;;;;5019111;28;20032;-62
2023/07/24 01:37:43;;;;;;;14.77;8.50;;;23.40;74.30;;;;;;5018687;28;20042;-61
2023/07/24 01:40:11;;;;;;;14.88;8.68;;;23.40;74.20;;;;;;5018622;28;20045;-62
2023/07/24 01:42:37;;;;;;;12.43;8.02;;;23.40;74.10;;;;;;5018588;28;20026;-64
2023/07/24 01:45:04;;;;;;;13.57;8.60;;;23.40;73.90;;;;;;5018753;28;20026;-60
2023/07/24 01:47:30;;;;;;;13.00;8.27;;;23.40;73.90;;;;;;5018432;28;20030;-61
2023/07/24 01:49:56;;;;;;;15.30;8.55;;;23.40;73.80;;;;;;5018965;28;20046;-59
2023/07/24 01:52:22;;;;;;;12.25;8.40;;;23.40;73.70;;;;;;5018491;28;20029;-62
2023/07/24 01:54:48;;;;;;;17.98;9.32;;;23.30;73.50;;;;;;5018367;28;20030;-61
2023/07/24 01:57:14;;;;;;;13.77;8.68;;;23.30;73.40;;;;;;5018295;28;20026;-65
2023/07/24 01:59:40;;;;;;;13.30;8.55;;;23.30;73.30;;;;;;5018265;28;20073;-61
2023/07/24 02:02:06;;;;;;;11.95;8.20;;;23.30;73.20;;;;;;5017561;28;20109;-61
2023/07/24 02:04:32;;;;;;;14.98;8.48;;;23.30;73.30;;;;;;5018444;28;20036;-62
2023/07/24 02:06:58;;;;;;;13.95;8.73;;;23.30;73.30;;;;;;5017953;28;20108;-60
2023/07/24 02:09:24;;;;;;;12.45;8.00;;;23.20;73.20;;;;;;5018668;28;20033;-59
2023/07/24 02:11:50;;;;;;;14.90;8.25;;;23.20;73.10;;;;;;5018582;28;20109;-62
2023/07/24 02:14:18;;;;;;;19.38;9.80;;;23.20;73.10;;;;;;5018285;28;20025;-65
2023/07/24 02:16:44;;;;;;;14.18;8.23;;;23.10;73.00;;;;;;5016908;28;20355;-65
2023/07/24 02:19:10;;;;;;;15.23;8.52;;;23.10;73.00;;;;;;5017880;28;20037;-62
2023/07/24 02:21:36;;;;;;;14.57;8.82;;;23.10;73.00;;;;;;5017819;28;20022;-59
2023/07/24 02:24:02;;;;;;;15.35;8.75;;;23.10;72.90;;;;;;5017793;28;20432;-65
2023/07/24 02:26:28;;;;;;;14.70;9.00;;;23.10;72.90;;;;;;5016738;28;20032;-62
2023/07/24 02:28:54;;;;;;;13.77;8.20;;;23.10;72.80;;;;;;5018285;28;20029;-60
2023/07/24 02:31:20;;;;;;;12.98;8.45;;;23.10;72.80;;;;;;5017687;28;20053;-64
2023/07/24 02:33:46;;;;;;;13.43;8.45;;;23.10;72.80;;;;;;5017672;28;20372;-60
2023/07/24 02:36:12;;;;;;;13.02;8.10;;;23.10;72.80;;;;;;5017546;28;20030;-66
2023/07/24 02:38:38;;;;;;;12.32;7.80;;;23.00;72.80;;;;;;5017853;28;20320;-61
2023/07/24 02:41:04;;;;;;;13.07;7.90;;;23.00;72.80;;;;;;5017533;28;20026;-61
2023/07/24 02:43:30;;;;;;;12.82;7.68;;;23.00;72.80;;;;;;5016514;28;20051;-64
2023/07/24 02:46:01;;;;;;;11.68;7.43;;;23.10;72.80;;;;;;5017812;28;20036;-63
2023/07/24 02:48:28;;;;;;;14.50;8.25;;;23.10;72.70;;;;;;5017705;28;20052;-64
2023/07/24 02:51:06;;;;;;;13.93;7.82;;;23.00;72.80;;;;;;5017845;28;20033;-62
2023/07/24 02:53:32;;;;;;;12.55;7.63;;;23.10;72.90;;;;;;5017566;28;20054;-63
2023/07/24 02:55:58;;;;;;;12.77;8.23;;;23.00;73.00;;;;;;5017758;28;20053;-62
2023/07/24 02:58:24;;;;;;;13.95;8.07;;;23.10;73.00;;;;;;5017235;28;20475;-62
2023/07/24 03:00:49;;;;;;;15.07;8.95;;;23.10;73.00;;;;;;5017369;28;20022;-61
2023/07/24 03:03:15;;;;;;;13.82;7.90;;;23.00;73.00;;;;;;5017150;28;20026;-65
2023/07/24 03:05:41;;;;;;;12.93;7.90;;;23.00;73.00;;;;;;5017216;28;20102;-63
2023/07/24 03:08:07;;;;;;;14.75;8.45;;;23.00;73.00;;;;;;5017418;28;20033;-63
2023/07/24 03:10:33;;;;;;;13.45;8.55;;;23.00;73.00;;;;;;5017600;28;20365;-64
2023/07/24 03:12:59;;;;;;;14.05;8.70;;;23.00;73.00;;;;;;5016971;28;20393;-62
2023/07/24 03:15:25;;;;;;;13.00;8.25;;;23.00;73.10;;;;;;5015834;28;20360;-62
2023/07/24 03:17:51;;;;;;;15.93;8.73;;;23.00;73.10;;;;;;5017136;28;20117;-64
2023/07/24 03:20:18;;;;;;;15.35;9.38;;;22.90;73.20;;;;;;5016762;28;20539;-63
2023/07/24 03:22:45;;;;;;;16.20;9.60;;;22.90;73.20;;;;;;5016799;28;20044;-61
2023/07/24 03:25:11;;;;;;;15.55;9.32;;;22.90;73.20;;;;;;5016939;28;20022;-65
2023/07/24 03:27:37;;;;;;;15.63;9.15;;;22.90;73.10;;;;;;5016717;28;20022;-61
2023/07/24 03:30:03;;;;;;;16.60;8.98;;;22.90;73.20;;;;;;5016893;28;20021;-60
2023/07/24 03:32:29;;;;;;;16.20;8.82;;;22.80;73.40;;;;;;5017333;28;20052;-60
2023/07/24 03:34:55;;;;;;;14.23;9.25;;;22.70;73.50;;;;;;5015820;28;20452;-61
2023/07/24 03:37:21;;;;;;;13.32;8.10;;;22.70;73.60;;;;;;5015520;28;20030;-65
2023/07/24 03:39:47;;;;;;;13.23;8.40;;;22.70;73.70;;;;;;5017221;28;20448;-64
2023/07/24 03:42:26;;;;;;;13.68;8.52;;;22.70;73.80;;;;;;5018744;28;20026;-61
2023/07/24 03:44:52;;;;;;;15.07;9.63;;;22.70;73.90;;;;;;5018519;28;20031;-62
2023/07/24 03:47:18;;;;;;;17.15;9.77;;;22.70;73.80;;;;;;5018412;28;20455;-66
2023/07/24 03:49:44;;;;;;;18.45;10.40;;;22.70;73.70;;;;;;5018015;28;20030;-61
2023/07/24 03:52:10;;;;;;;16.90;10.68;;;22.70;73.60;;;;;;5016900;28;20061;-63
2023/07/24 03:54:36;;;;;;;15.88;9.60;;;22.70;73.60;;;;;;5016212;28;20034;-61
2023/07/24 03:57:02;;;;;;;14.75;8.82;;;22.70;73.60;;;;;;5016331;28;20030;-64
2023/07/24 03:59:28;;;;;;;16.25;9.40;;;22.70;73.60;;;;;;5016137;28;20036;-64
2023/07/24 04:01:54;;;;;;;13.45;8.63;;;22.80;73.60;;;;;;5016479;28;20105;-61
2023/07/24 04:04:20;;;;;;;12.13;7.97;;;22.80;73.50;;;;;;5016030;28;20360;-65
2023/07/24 04:06:47;;;;;;;15.25;9.13;;;22.80;73.50;;;;;;5015720;28;20468;-63
2023/07/24 04:09:14;;;;;;;14.90;9.88;;;22.90;73.40;;;;;;5015899;28;20033;-62
2023/07/24 04:11:44;;;;;;;16.10;10.77;;;22.90;73.30;;;;;;5015854;28;20037;-63
2023/07/24 04:14:10;;;;;;;16.25;9.57;;;23.00;73.30;;;;;;5015911;28;20038;-62
2023/07/24 04:16:37;;;;;;;15.57;9.10;;;23.10;73.40;;;;;;5015880;28;20054;-62
2023/07/24 04:19:03;;;;;;;12.55;8.75;;;23.20;73.30;;;;;;5015831;28;20030;-64
2023/07/24 04:21:29;;;;;;;13.63;8.93;;;23.20;73.40;;;;;;5015994;28;20344;-63
2023/07/24 04:23:55;;;;;;;11.60;8.18;;;23.30;73.40;;;;;;5016047;28;20033;-62
2023/07/24 04:26:21;;;;;;;12.65;8.02;;;23.40;73.30;;;;;;5016168;28;20022;-62
2023/07/24 04:28:47;;;;;;;13.88;8.25;;;23.50;73.30;;;;;;5016185;28;20421;-60
2023/07/24 04:31:13;;;;;;;13.77;7.95;;;23.50;73.30;;;;;;5015945;28;20328;-60
2023/07/24 04:33:39;;;;;;;12.43;8.10;;;23.60;73.20;;;;;;5015893;28;20491;-62
2023/07/24 04:36:05;;;;;;;14.65;9.07;;;23.70;73.20;;;;;;5015805;28;20022;-63
2023/07/24 04:38:31;;;;;;;12.35;8.55;;;23.90;73.10;;;;;;5015514;28;20030;-59
2023/07/24 04:40:59;;;;;;;14.27;8.63;;;24.00;73.00;;;;;;5015728;28;20036;-59
2023/07/24 04:43:25;;;;;;;13.57;9.65;;;24.10;72.80;;;;;;5016030;28;20025;-64
2023/07/24 04:45:51;;;;;;;14.35;9.77;;;24.20;72.60;;;;;;5015297;28;20517;-59
2023/07/24 04:48:17;;;;;;;15.20;8.52;;;24.30;72.40;;;;;;5015519;28;20399;-65
2023/07/24 04:50:43;;;;;;;13.82;8.77;;;24.40;72.30;;;;;;5015953;28;20343;-62
2023/07/24 04:53:09;;;;;;;14.38;10.25;;;24.50;72.20;;;;;;5015737;28;20026;-63
2023/07/24 04:55:35;;;;;;;15.30;9.80;;;24.90;71.80;;;;;;5015699;28;20022;-62
2023/07/24 04:58:01;;;;;;;14.95;9.02;;;25.40;71.10;;;;;;5014850;28;20045;-61
2023/07/24 05:00:27;;;;;;;17.50;10.18;;;25.90;70.50;;;;;;5015191;28;20576;-64
2023/07/24 05:02:53;;;;;;;16.70;10.20;;;26.10;69.70;;;;;;5015339;28;20391;-61
2023/07/24 05:05:19;;;;;;;12.77;9.25;;;26.30;69.10;;;;;;5015197;28;20081;-63
2023/07/24 05:07:45;;;;;;;13.20;8.38;;;26.40;68.80;;;;;;5015524;28;20061;-62
2023/07/24 05:10:13;;;;;;;15.70;9.43;;;26.40;68.70;;;;;;5015484;28;20022;-61
2023/07/24 05:12:42;;;;;;;14.38;9.65;;;26.30;68.70;;;;;;5015147;28;20126;-62
2023/07/24 05:15:08;;;;;;;14.38;8.70;;;26.20;68.80;;;;;;5015083;28;20095;-65
2023/07/24 05:17:34;;;;;;;13.23;8.40;;;26.10;69.10;;;;;;5015711;28;20483;-64
2023/07/24 05:20:00;;;;;;;14.68;9.68;;;26.00;69.20;;;;;;5015139;28;20037;-61
2023/07/24 05:22:26;;;;;;;13.65;9.52;;;26.00;69.30;;;;;;5015109;28;20033;-64
2023/07/24 05:24:52;;;;;;;14.32;9.40;;;26.00;69.50;;;;;;5015040;28;20030;-59
2023/07/24 05:27:18;;;;;;;11.80;8.45;;;26.00;69.60;;;;;;5015085;28;20022;-58
2023/07/24 05:29:44;;;;;;;13.18;9.38;;;26.00;69.70;;;;;;5015063;28;20022;-62
2023/07/24 05:32:10;;;;;;;13.82;9.20;;;26.20;69.50;;;;;;5014993;28;20030;-61
2023/07/24 05:34:36;;;;;;;14.35;9.25;;;26.40;69.20;;;;;;5015254;28;20105;-62
2023/07/24 05:37:02;;;;;;;14.27;9.10;;;27.00;68.50;;;;;;5015199;28;20460;-65
2023/07/24 05:39:30;;;;;;;12.73;8.50;;;27.60;67.40;;;;;;5014947;28;20045;-61
2023/07/24 05:41:56;;;;;;;14.10;8.95;;;28.40;65.80;;;;;;5015088;28;20088;-61
2023/07/24 05:44:22;;;;;;;13.93;8.93;;;29.10;64.30;;;;;;5014932;28;20026;-65
2023/07/24 05:46:48;;;;;;;13.95;9.05;;;29.40;63.20;;;;;;5014854;28;20440;-63
2023/07/24 05:49:14;;;;;;;16.10;9.38;;;29.30;62.60;;;;;;5014856;28;20025;-62
2023/07/24 05:51:40;;;;;;;14.43;9.32;;;29.40;62.50;;;;;;5015279;28;20080;-63
2023/07/24 05:54:06;;;;;;;16.67;10.18;;;29.80;61.80;;;;;;5014813;28;20030;-63
2023/07/24 05:56:32;;;;;;;15.77;9.98;;;30.50;60.40;;;;;;5015239;28;20156;-61
2023/07/24 05:58:58;;;;;;;18.40;10.20;;;31.30;58.50;;;;;;5016611;28;20096;-60
2023/07/24 06:01:24;;;;;;;15.65;9.77;;;31.50;57.30;;;;;;5018447;28;20049;-62
2023/07/24 06:03:50;;;;;;;18.88;9.75;;;31.20;57.40;;;;;;5018730;28;20033;-63
2023/07/24 06:06:17;;;;;;;14.63;9.00;;;30.80;58.40;;;;;;5017936;28;20086;-63
2023/07/24 06:08:43;;;;;;;16.88;9.80;;;30.20;59.20;;;;;;5018136;28;20030;-61
2023/07/24 06:11:10;;;;;;;15.00;9.45;;;29.40;60.80;;;;;;5018095;28;20037;-61
2023/07/24 06:13:36;;;;;;;16.73;9.90;;;28.90;62.40;;;;;;5018016;28;20025;-62
2023/07/24 06:16:02;;;;;;;18.00;9.88;;;28.60;63.80;;;;;;5017995;28;20033;-62
2023/07/24 06:18:27;;;;;;;16.15;9.55;;;28.70;64.40;;;;;;5018434;28;20040;-64
2023/07/24 06:20:54;;;;;;;15.98;9.82;;;29.20;63.70;;;;;;5018128;28;20109;-64
2023/07/24 06:23:23;;;;;;;16.45;10.20;;;29.60;62.70;;;;;;5017939;28;20053;-61
2023/07/24 06:25:48;;;;;;;16.98;10.02;;;29.50;62.40;;;;;;5017792;28;20018;-63
2023/07/24 06:28:15;;;;;;;16.75;10.38;;;29.10;63.10;;;;;;5018350;28;20026;-64
2023/07/24 06:30:41;;;;;;;15.50;10.30;;;28.50;64.10;;;;;;5017683;28;20034;-63
2023/07/24 06:33:07;;;;;;;15.95;10.23;;;28.00;65.30;;;;;;5017989;28;20034;-64
2023/07/24 06:35:41;;;;;;;15.15;10.30;;;27.60;66.50;;;;;;5017854;28;20339;-62
2023/07/24 06:38:10;;;;;;;15.65;10.45;;;27.30;67.40;;;;;;5017783;28;20109;-64
2023/07/24 06:40:36;;;;;;;15.98;10.35;;;27.10;68.10;;;;;;5017975;28;20332;-63
2023/07/24 06:43:02;;;;;;;19.55;10.85;;;27.20;68.30;;;;;;5017422;28;20022;-64
2023/07/24 06:45:28;;;;;;;15.38;10.10;;;27.20;68.20;;;;;;5017349;28;20022;-65
2023/07/24 06:47:54;;;;;;;16.00;10.85;;;27.30;68.20;;;;;;5017940;28;20034;-62
2023/07/24 06:50:20;;;;;;;15.88;11.10;;;27.30;68.20;;;;;;5017867;28;20156;-60
2023/07/24 06:52:46;;;;;;;17.45;10.60;;;27.30;68.20;;;;;;5017290;28;20352;-59
2023/07/24 06:55:12;;;;;;;18.77;9.85;;;27.30;68.20;;;;;;5017242;28;20033;-61
2023/07/24 06:57:38;;;;;;;15.00;10.75;;;27.40;67.90;;;;;;5017190;28;20164;-63
2023/07/24 07:00:05;;;;;;;18.83;10.63;;;27.50;67.60;;;;;;5017370;28;20033;-64
2023/07/24 07:02:31;;;;;;;16.73;10.23;;;27.60;67.50;;;;;;5017144;28;20083;-64
2023/07/24 07:04:57;;;;;;;17.17;10.35;;;27.90;67.30;;;;;;5017526;28;20101;-61
2023/07/24 07:07:23;;;;;;;17.15;9.65;;;28.10;66.90;;;;;;5016849;28;20060;-64
2023/07/24 07:09:49;;;;;;;14.20;9.88;;;28.30;66.50;;;;;;5015877;28;20018;-61
2023/07/24 07:12:15;;;;;;;15.70;10.40;;;28.30;66.30;;;;;;5017005;28;20034;-62
2023/07/24 07:14:41;;;;;;;15.13;10.07;;;28.20;66.40;;;;;;5016907;28;20455;-65
2023/07/24 07:17:07;;;;;;;18.23;10.57;;;28.00;66.70;;;;;;5016827;28;20036;-61
2023/07/24 07:19:33;;;;;;;16.83;10.18;;;28.10;66.90;;;;;;5016847;28;20030;-63
2023/07/24 07:21:59;;;;;;;16.13;10.15;;;28.40;66.80;;;;;;5017201;28;20102;-63
2023/07/24 07:24:25;;;;;;;19.30;10.85;;;28.50;66.40;;;;;;5017246;28;20100;-64
2023/07/24 07:26:51;;;;;;;16.55;11.18;;;28.80;65.90;;;;;;5017105;28;20021;-61
2023/07/24 07:29:18;;;;;;;17.27;10.13;;;29.00;65.40;;;;;;5016628;28;20022;-65
2023/07/24 07:31:43;;;;;;;17.45;10.88;;;29.20;64.90;;;;;;5017103;28;20084;-62
2023/07/24 07:34:16;;;;;;;17.23;10.98;;;29.40;64.50;;;;;;5016581;28;20026;-61
2023/07/24 07:36:42;;;;;;;18.02;10.18;;;29.50;64.40;;;;;;5017136;28;20041;-61
2023/07/24 07:39:09;;;;;;;14.05;9.90;;;29.60;63.80;;;;;;5017436;28;20348;-62
2023/07/24 07:41:35;;;;;;;13.63;9.73;;;29.60;63.90;;;;;;5017537;28;20034;-61
2023/07/24 07:44:01;;;;;;;16.27;9.55;;;29.60;64.10;;;;;;5017124;28;20072;-63
2023/07/24 07:46:27;;;;;;;19.10;9.75;;;29.70;64.10;;;;;;5016257;28;20072;-62
2023/07/24 07:48:53;;;;;;;14.30;8.38;;;29.60;63.70;;;;;;5016528;28;20440;-62
2023/07/24 07:51:19;;;;;;;15.02;8.57;;;29.50;64.00;;;;;;5016262;28;20026;-63
2023/07/24 07:53:45;;;;;;;13.10;8.90;;;29.40;64.20;;;;;;5016217;28;20100;-63
2023/07/24 07:56:11;;;;;;;12.75;8.52;;;29.40;64.40;;;;;;5016290;28;20124;-59
2023/07/24 07:58:37;;;;;;;13.95;8.57;;;29.40;64.50;;;;;;5015091;28;20040;-61
2023/07/24 08:01:06;;;;;;;14.98;8.43;;;29.50;64.50;;;;;;5016240;28;20021;-61
2023/07/24 08:03:33;;;;;;;12.45;8.27;;;29.60;64.40;;;;;;5015980;28;20022;-61
2023/07/24 08:06:01;;;;;;;14.85;9.25;;;29.60;64.10;;;;;;5015582;28;20052;-63
2023/07/24 08:08:27;;;;;;;16.73;10.05;;;29.40;64.10;;;;;;5016518;28;20029;-61
2023/07/24 08:10:53;;;;;;;15.55;9.82;;;29.10;64.70;;;;;;5016196;28;20030;-63
2023/07/24 08:15:50;;;;;;;17.10;9.02;;;28.50;66.20;;;;;;5016345;28;20461;-60
2023/07/24 08:18:16;;;;;;;15.60;9.50;;;28.10;67.70;;;;;;5015916;28;20092;-61
2023/07/24 08:20:42;;;;;;;15.60;9.23;;;27.80;68.40;;;;;;5015186;28;20058;-61
2023/07/24 08:23:08;;;;;;;14.98;9.55;;;27.70;68.80;;;;;;5015894;28;20030;-62
2023/07/24 08:25:34;;;;;;;15.80;8.93;;;27.90;68.90;;;;;;5015636;28;20497;-61
2023/07/24 08:27:59;;;;;;;15.65;9.27;;;28.30;68.50;;;;;;5016205;28;20032;-59
2023/07/24 08:30:26;;;;;;;17.00;8.80;;;28.60;67.80;;;;;;5015628;28;20026;-63
2023/07/24 08:32:53;;;;;;;14.25;7.95;;;28.80;66.60;;;;;;5015582;28;20069;-63
2023/07/24 08:35:19;;;;;;;13.90;8.25;;;28.90;66.40;;;;;;5015752;28;20132;-62
2023/07/24 08:37:45;;;;;;;15.05;8.70;;;29.00;66.10;;;;;;5015839;28;20022;-62
2023/07/24 08:40:11;;;;;;;15.27;9.20;;;29.10;65.90;;;;;;5015409;28;20111;-60
2023/07/24 08:42:44;;;;;;;15.52;9.57;;;29.20;65.40;;;;;;5014502;28;20022;-61
2023/07/24 08:45:16;;;;;;;14.93;8.50;;;29.20;65.40;;;;;;5015685;28;20349;-60
2023/07/24 08:47:46;;;;;;;14.25;9.18;;;29.20;65.20;;;;;;5015458;28;20021;-62
2023/07/24 08:50:14;;;;;;;17.17;9.10;;;29.10;65.10;;;;;;5015669;28;20405;-63
2023/07/24 08:52:42;;;;;;;18.98;10.48;;;28.90;65.20;;;;;;5015655;28;20026;-61
2023/07/24 08:55:08;;;;;;;16.02;9.75;;;28.70;65.40;;;;;;5015592;28;20024;-64
2023/07/24 08:57:35;;;;;;;14.77;9.60;;;28.50;65.90;;;;;;5015613;28;20022;-61
2023/07/24 09:00:04;;;;;;;14.95;9.38;;;28.40;66.20;;;;;;5015260;28;20033;-61
2023/07/24 09:02:35;;;;;;;13.45;8.68;;;28.40;66.50;;;;;;5015298;28;20437;-61
2023/07/24 09:05:02;;;;;;;15.30;10.00;;;28.30;66.70;;;;;;5015194;28;20026;-60
2023/07/24 09:07:29;;;;;;;14.90;9.40;;;28.30;66.80;;;;;;5015078;28;20053;-62
2023/07/24 09:09:55;;;;;;;18.23;10.52;;;28.20;66.90;;;;;;5015714;28;20380;-60
2023/07/24 09:12:22;;;;;;;16.38;10.02;;;28.10;67.30;;;;;;5015247;28;20038;-63
2023/07/24 09:14:48;;;;;;;15.63;9.95;;;28.20;68.00;;;;;;5015497;28;20029;-62
2023/07/24 09:17:14;;;;;;;15.30;10.43;;;28.40;68.10;;;;;;5015654;28;20532;-63
2023/07/24 09:19:40;;;;;;;16.17;10.27;;;28.60;67.80;;;;;;5015710;28;20049;-65
2023/07/24 09:22:17;;;;;;;14.95;9.60;;;28.80;67.40;;;;;;5015331;28;20052;-61
2023/07/24 09:25:10;;;;;;;17.33;10.50;;;29.00;67.10;;;;;;5015442;28;20562;-62
2023/07/24 09:27:45;;;;;;;16.83;10.63;;;29.20;65.80;;;;;;5011941;28;20037;-63
2023/07/24 09:30:14;;;;;;;14.45;9.88;;;29.30;65.70;;;;;;5015381;28;20037;-62
2023/07/24 09:32:40;;;;;;;14.70;9.90;;;29.40;65.60;;;;;;5015562;28;20026;-65
2023/07/24 09:35:28;;;;;;;17.25;10.68;;;29.50;64.80;;;;;;5017729;28;20382;-61
2023/07/24 09:38:11;;;;;;;16.75;9.68;;;29.50;64.70;;;;;;5019309;28;20022;-62
2023/07/24 09:40:42;;;;;;;14.55;9.38;;;29.40;64.00;;;;;;5019527;28;20030;-61
2023/07/24 09:43:36;;;;;;;13.98;9.80;;;29.40;63.90;;;;;;5018995;28;20026;-65
2023/07/24 09:46:06;;;;;;;18.58;9.95;;;29.40;64.50;;;;;;5016930;28;20041;-59
2023/07/24 09:48:37;;;;;;;14.20;9.85;;;29.50;64.40;;;;;;5019365;28;20037;-64
2023/07/24 09:51:15;;;;;;;15.27;9.90;;;29.50;64.40;;;;;;5018557;28;20069;-61
2023/07/24 09:53:55;;;;;;;13.00;8.13;;;29.60;64.30;;;;;;5019063;28;20030;-63
2023/07/24 09:56:22;;;;;;;15.35;9.00;;;29.70;64.00;;;;;;5019468;28;20037;-62
2023/07/24 09:58:49;;;;;;;15.00;9.10;;;29.80;63.80;;;;;;5018385;28;20029;-63
2023/07/24 10:01:16;;;;;;;13.30;8.25;;;29.80;63.50;;;;;;5018513;28;20049;-62
2023/07/24 10:03:48;;;;;;;13.50;8.15;;;29.80;63.70;;;;;;5018584;28;20097;-63
2023/07/24 10:06:15;;;;;;;14.32;8.40;;;29.80;64.00;;;;;;5018106;28;20042;-63
2023/07/24 10:08:42;;;;;;;13.38;8.48;;;29.80;63.80;;;;;;5018319;28;20038;-63
2023/07/24 10:11:12;;;;;;;13.75;8.43;;;29.90;63.70;;;;;;5018708;28;20037;-62
2023/07/24 10:13:50;;;;;;;14.55;8.30;;;29.80;63.70;;;;;;5018979;28;20061;-63
2023/07/24 10:16:16;;;;;;;13.10;8.60;;;29.70;63.80;;;;;;5018553;28;20101;-63
2023/07/24 10:18:46;;;;;;;11.50;7.65;;;29.70;63.90;;;;;;5018317;28;20104;-63
2023/07/24 10:21:13;;;;;;;15.32;8.38;;;29.50;64.00;;;;;;5017896;28;20116;-63
2023/07/24 10:23:48;;;;;;;14.23;8.82;;;29.40;64.10;;;;;;5018248;28;20077;-61
2023/07/24 10:26:15;;;;;;;12.38;7.95;;;29.30;64.30;;;;;;5018061;28;20440;-61
2023/07/24 10:28:41;;;;;;;13.85;8.88;;;29.20;64.40;;;;;;5016899;28;20053;-61
2023/07/24 10:31:23;;;;;;;17.13;10.40;;;29.20;64.50;;;;;;5017842;28;20026;-65
2023/07/24 10:33:50;;;;;;;15.63;9.95;;;29.10;65.00;;;;;;5018077;28;20057;-60
2023/07/24 10:36:22;;;;;;;16.50;10.48;;;29.10;65.30;;;;;;5017577;28;20029;-61
2023/07/24 10:38:55;;;;;;;15.18;9.95;;;29.20;65.20;;;;;;5017631;28;20458;-64
2023/07/24 10:41:35;;;;;;;16.02;10.10;;;29.40;64.80;;;;;;5018063;28;20113;-64
2023/07/24 10:44:01;;;;;;;15.25;9.93;;;29.40;63.90;;;;;;5017944;28;20504;-62
2023/07/24 10:46:36;;;;;;;15.57;10.57;;;29.30;64.00;;;;;;5017690;28;20034;-64
2023/07/24 10:49:03;;;;;;;15.48;10.70;;;29.20;64.60;;;;;;5018024;28;20033;-63
2023/07/24 10:51:33;;;;;;;16.30;10.45;;;29.20;64.80;;;;;;5017384;28;20030;-61
2023/07/24 10:54:01;;;;;;;20.25;10.93;;;29.10;65.10;;;;;;5017591;28;20069;-63
2023/07/24 10:56:27;;;;;;;15.88;10.35;;;29.00;65.00;;;;;;5017282;28;20018;-61
2023/07/24 10:58:53;;;;;;;20.58;10.88;;;29.00;65.20;;;;;;5017290;28;20021;-64
2023/07/24 11:01:19;;;;;;;20.40;11.88;;;28.90;65.60;;;;;;5017363;28;20022;-61
2023/07/24 11:03:46;;;;;;;17.50;10.73;;;28.90;65.80;;;;;;5016241;28;20076;-62
2023/07/24 11:06:17;;;;;;;17.25;11.25;;;28.90;65.60;;;;;;5016873;28;20364;-64
2023/07/24 11:08:52;;;;;;;16.05;11.15;;;28.90;65.40;;;;;;5017394;28;20083;-61
2023/07/24 11:11:18;;;;;;;17.52;11.40;;;28.90;65.40;;;;;;5017063;28;20546;-60
2023/07/24 11:13:44;;;;;;;17.08;11.10;;;28.90;65.30;;;;;;5017262;28;20021;-61
2023/07/24 11:16:10;;;;;;;16.70;10.75;;;28.90;65.60;;;;;;5017215;28;20061;-62
2023/07/24 11:18:47;;;;;;;17.35;10.77;;;28.90;65.60;;;;;;5017448;28;20069;-63
2023/07/24 11:21:14;;;;;;;16.23;10.50;;;28.80;65.50;;;;;;5016770;28;20026;-60
2023/07/24 11:23:49;;;;;;;18.20;11.27;;;28.80;65.80;;;;;;5017063;28;20148;-60
2023/07/24 11:26:20;;;;;;;18.10;11.32;;;28.70;66.30;;;;;;5016923;28;20036;-63
2023/07/24 11:28:46;;;;;;;17.80;11.23;;;28.70;66.60;;;;;;5016947;28;20022;-61
2023/07/24 11:31:12;;;;;;;18.95;11.18;;;28.70;66.90;;;;;;5017188;28;20030;-63
2023/07/24 11:33:39;;;;;;;16.73;11.10;;;28.70;67.00;;;;;;5017156;28;20029;-62
2023/07/24 11:36:06;;;;;;;14.38;10.13;;;28.80;67.40;;;;;;5017043;28;20109;-61
2023/07/24 11:38:31;;;;;;;17.58;10.73;;;28.90;67.20;;;;;;5016547;28;20130;-63
2023/07/24 11:41:00;;;;;;;17.63;10.90;;;29.00;66.60;;;;;;5016517;28;20049;-62
2023/07/24 11:43:27;;;;;;;18.40;11.57;;;29.20;66.40;;;;;;5017043;28;20100;-65
2023/07/24 11:45:54;;;;;;;16.70;10.30;;;29.40;65.70;;;;;;5016393;28;20018;-59
2023/07/24 11:48:23;;;;;;;17.13;10.88;;;29.40;65.00;;;;;;5016675;28;20026;-62
2023/07/24 11:50:56;;;;;;;15.50;9.68;;;29.30;65.20;;;;;;5016312;28;20022;-61
2023/07/24 11:53:23;;;;;;;;;;;29.10;65.30;;;;;;5017337;28;20045;-60
2023/07/24 11:55:53;;;;;;;16.02;10.20;;;28.90;65.50;;;;;;5015643;28;19905;-63
2023/07/24 11:58:20;;;;;;;17.05;10.00;;;28.90;65.70;;;;;;5016175;28;20478;-60
2023/07/24 12:00:51;;;;;;;17.88;10.65;;;28.80;65.50;;;;;;5016367;28;20105;-62
2023/07/24 12:03:29;;;;;;;18.00;10.98;;;28.70;66.60;;;;;;5016109;28;20387;-63
2023/07/24 12:05:57;;;;;;;16.63;10.80;;;28.60;67.10;;;;;;5015727;28;20037;-61
2023/07/24 12:08:35;;;;;;;15.18;10.60;;;28.50;67.30;;;;;;5016319;28;20032;-62
2023/07/24 12:11:02;;;;;;;22.15;11.10;;;28.70;67.30;;;;;;5015956;28;20478;-63
2023/07/24 12:13:29;;;;;;;17.98;10.95;;;28.80;67.40;;;;;;5016180;28;20100;-65
2023/07/24 12:15:55;;;;;;;15.82;9.52;;;28.80;67.10;;;;;;5015834;28;20049;-62
2023/07/24 12:18:21;;;;;;;16.05;10.02;;;28.70;67.10;;;;;;5013303;28;20351;-64
2023/07/24 12:20:47;;;;;;;14.25;9.52;;;28.70;67.20;;;;;;5013112;28;20029;-65
2023/07/24 12:23:13;;;;;;;13.00;9.68;;;28.70;67.20;;;;;;5010006;28;20022;-61
2023/07/24 12:25:39;;;;;;;14.52;9.00;;;28.80;67.10;;;;;;4995074;28;20034;-62
2023/07/24 12:28:09;;;;;;;15.45;9.50;;;28.80;66.90;;;;;;4996017;28;20027;-63
2023/07/24 12:30:35;;;;;;;14.38;10.02;;;28.90;66.70;;;;;;4996076;28;20030;-66
2023/07/24 12:33:01;;;;;;;16.85;10.20;;;28.90;66.40;;;;;;4996028;28;20143;-63
2023/07/24 12:35:27;;;;;;;13.90;9.30;;;29.10;66.00;;;;;;4995293;28;20030;-59
2023/07/24 12:37:54;;;;;;;17.45;10.20;;;29.20;65.60;;;;;;4996170;28;20360;-60